createdAt,value
2023-05-07T00:00:09.618Z,11.70
2023-05-07T00:02:55.540Z,11.71
2023-05-07T00:05:41.049Z,11.72
2023-05-07T00:08:26.748Z,11.70
2023-05-07T00:11:12.559Z,11.70
2023-05-07T00:13:58.408Z,11.70
2023-05-07T00:16:44.039Z,11.67
2023-05-07T00:19:29.360Z,11.62
2023-05-07T00:22:14.707Z,11.56
2023-05-07T00:25:00.244Z,11.49
2023-05-07T00:27:45.868Z,11.43
2023-05-07T00:30:31.244Z,11.34
2023-05-07T00:33:16.547Z,11.30
2023-05-07T00:36:03.052Z,11.23
2023-05-07T00:38:48.446Z,11.21
2023-05-07T00:41:34.032Z,11.20
2023-05-07T00:44:19.673Z,11.23
2023-05-07T00:47:06.366Z,11.28
2023-05-07T00:49:52.803Z,11.34
2023-05-07T00:52:38.731Z,11.39
2023-05-07T00:55:25.463Z,11.42
2023-05-07T00:58:10.865Z,11.46
2023-05-07T01:00:56.360Z,11.48
2023-05-07T01:03:41.695Z,11.50
2023-05-07T01:06:30.352Z,11.50
2023-05-07T01:09:15.815Z,11.51
2023-05-07T01:12:01.427Z,11.50
2023-05-07T01:14:47.528Z,11.51
2023-05-07T01:17:44.028Z,11.51
2023-05-07T01:20:37.372Z,11.52
2023-05-07T01:23:23.886Z,11.51
2023-05-07T01:26:09.180Z,11.53
2023-05-07T01:28:55.286Z,11.56
2023-05-07T01:31:43.350Z,11.59
2023-05-07T01:34:32.588Z,11.62
2023-05-07T01:37:18.465Z,11.66
2023-05-07T01:40:04.448Z,11.69
2023-05-07T01:42:50.177Z,11.72
2023-05-07T01:45:36.182Z,11.73
2023-05-07T01:48:22.348Z,11.74
2023-05-07T01:51:09.862Z,11.73
2023-05-07T01:53:55.587Z,11.74
2023-05-07T01:56:41.338Z,11.72
2023-05-07T01:59:27.320Z,11.69
2023-05-07T02:02:13.148Z,11.69
2023-05-07T02:05:02.845Z,11.67
2023-05-07T02:07:48.201Z,11.68
2023-05-07T02:10:37.151Z,11.68
2023-05-07T02:13:25.783Z,11.68
2023-05-07T02:16:11.984Z,11.67
2023-05-07T02:18:59.256Z,11.65
2023-05-07T02:21:45.275Z,11.62
2023-05-07T02:24:30.611Z,11.62
2023-05-07T02:27:16.222Z,11.60
2023-05-07T02:30:04.234Z,11.58
2023-05-07T02:32:49.810Z,11.57
2023-05-07T02:35:35.520Z,11.57
2023-05-07T02:38:21.079Z,11.56
2023-05-07T02:41:06.334Z,11.54
2023-05-07T02:43:51.642Z,11.52
2023-05-07T02:46:37.544Z,11.47
2023-05-07T02:49:27.978Z,11.41
2023-05-07T02:52:13.945Z,11.33
2023-05-07T02:54:59.262Z,11.26
2023-05-07T02:57:44.412Z,11.19
2023-05-07T03:00:30.238Z,11.16
2023-05-07T03:03:36.617Z,11.09
2023-05-07T03:06:22.348Z,11.07
2023-05-07T03:09:08.338Z,11.02
2023-05-07T03:11:54.479Z,10.94
2023-05-07T03:14:39.804Z,10.90
2023-05-07T03:17:25.103Z,10.86
2023-05-07T03:20:12.125Z,10.85
2023-05-07T03:22:58.549Z,10.86
2023-05-07T03:25:43.918Z,10.87
2023-05-07T03:28:29.492Z,10.90
2023-05-07T03:31:19.735Z,10.93
2023-05-07T03:34:05.530Z,10.92
2023-05-07T03:36:51.256Z,10.89
2023-05-07T03:39:38.473Z,10.85
2023-05-07T03:42:24.700Z,10.80
2023-05-07T03:45:11.630Z,10.76
2023-05-07T03:48:01.067Z,10.76
2023-05-07T03:50:47.520Z,10.79
2023-05-07T03:53:33.302Z,10.83
2023-05-07T03:56:19.853Z,10.89
2023-05-07T03:59:05.933Z,10.92
2023-05-07T04:01:51.408Z,10.94
2023-05-07T04:04:39.806Z,10.95
2023-05-07T04:07:25.639Z,10.96
2023-05-07T04:10:11.350Z,10.98
2023-05-07T04:12:59.962Z,10.98
2023-05-07T04:15:49.909Z,10.98
2023-05-07T04:18:37.421Z,10.97
2023-05-07T04:21:24.223Z,10.97
2023-05-07T04:24:12.047Z,10.97
2023-05-07T04:26:57.607Z,10.97
2023-05-07T04:29:44.218Z,10.97
2023-05-07T04:32:32.863Z,10.97
2023-05-07T04:35:18.587Z,10.97
2023-05-07T04:38:04.773Z,10.97
2023-05-07T04:40:50.866Z,10.95
2023-05-07T04:43:41.274Z,10.93
2023-05-07T04:46:26.810Z,10.92
2023-05-07T04:49:15.150Z,10.93
2023-05-07T04:52:00.784Z,10.92
2023-05-07T04:54:46.355Z,10.92
2023-05-07T04:57:32.275Z,10.92
2023-05-07T05:00:17.669Z,10.92
2023-05-07T05:03:04.874Z,10.91
2023-05-07T05:05:53.248Z,10.91
2023-05-07T05:08:41.000Z,10.89
2023-05-07T05:11:28.594Z,10.89
2023-05-07T05:14:14.044Z,10.87
2023-05-07T05:17:00.154Z,10.86
2023-05-07T05:19:45.515Z,10.86
2023-05-07T05:22:32.543Z,10.83
2023-05-07T05:25:19.487Z,10.84
2023-05-07T05:28:05.835Z,10.83
2023-05-07T05:30:53.310Z,10.82
2023-05-07T05:33:39.200Z,10.83
2023-05-07T05:36:25.092Z,10.86
2023-05-07T05:39:14.085Z,10.92
2023-05-07T05:41:59.537Z,10.99
2023-05-07T05:44:46.650Z,11.07
2023-05-07T05:47:32.462Z,11.16
2023-05-07T05:50:18.574Z,11.22
2023-05-07T05:53:04.271Z,11.25
2023-05-07T05:55:50.474Z,11.23
2023-05-07T05:58:36.369Z,11.22
2023-05-07T06:01:25.361Z,11.20
2023-05-07T06:04:13.064Z,11.16
2023-05-07T06:06:59.018Z,11.11
2023-05-07T06:09:45.394Z,11.09
2023-05-07T06:12:31.786Z,11.08
2023-05-07T06:15:17.575Z,11.07
2023-05-07T06:18:04.454Z,11.06
2023-05-07T06:20:50.356Z,11.11
2023-05-07T06:23:43.429Z,11.16
2023-05-07T06:26:29.597Z,11.21
2023-05-07T06:29:15.065Z,11.29
2023-05-07T06:32:12.742Z,11.41
2023-05-07T06:35:01.204Z,11.50
2023-05-07T06:37:46.855Z,11.56
2023-05-07T06:40:37.285Z,11.62
2023-05-07T06:43:23.106Z,11.70
2023-05-07T06:46:32.039Z,11.77
2023-05-07T06:49:17.480Z,11.90
2023-05-07T06:52:03.204Z,12.09
2023-05-07T06:54:48.955Z,12.30
2023-05-07T06:57:36.373Z,12.53
2023-05-07T07:00:22.518Z,12.70
2023-05-07T07:03:12.762Z,12.79
2023-05-07T07:05:59.282Z,12.86
2023-05-07T07:08:45.459Z,12.99
2023-05-07T07:11:34.146Z,13.16
2023-05-07T07:14:19.823Z,13.35
2023-05-07T07:17:09.179Z,13.52
2023-05-07T07:19:54.649Z,13.64
2023-05-07T07:22:40.548Z,13.78
2023-05-07T07:25:26.531Z,13.79
2023-05-07T07:28:12.436Z,13.81
2023-05-07T07:30:57.972Z,13.85
2023-05-07T07:33:43.534Z,13.93
2023-05-07T07:36:38.965Z,13.99
2023-05-07T07:39:35.789Z,14.11
2023-05-07T07:42:22.212Z,14.23
2023-05-07T07:45:08.388Z,14.28
2023-05-07T07:47:58.141Z,14.28
2023-05-07T07:50:45.604Z,14.29
2023-05-07T07:53:33.913Z,14.32
2023-05-07T07:56:19.166Z,14.33
2023-05-07T07:59:04.554Z,14.38
2023-05-07T08:01:55.469Z,14.41
2023-05-07T08:04:44.372Z,14.46
2023-05-07T08:07:31.467Z,14.45
2023-05-07T08:10:22.209Z,14.46
2023-05-07T08:13:11.764Z,14.42
2023-05-07T08:15:59.139Z,14.41
2023-05-07T08:18:45.018Z,14.41
2023-05-07T08:21:33.766Z,14.49
2023-05-07T08:24:21.153Z,14.53
2023-05-07T08:27:06.907Z,14.55
2023-05-07T08:29:52.642Z,14.57
2023-05-07T08:32:39.512Z,14.58
2023-05-07T08:35:25.067Z,14.57
2023-05-07T08:38:10.616Z,14.59
2023-05-07T08:40:56.777Z,14.64
2023-05-07T08:43:43.044Z,14.63
2023-05-07T08:46:32.823Z,14.63
2023-05-07T08:49:18.836Z,14.62
2023-05-07T08:52:04.808Z,14.64
2023-05-07T08:54:50.379Z,14.67
2023-05-07T08:57:37.092Z,14.72
2023-05-07T09:00:23.800Z,14.75
2023-05-07T09:03:13.809Z,14.86
2023-05-07T09:06:02.078Z,14.96
2023-05-07T09:08:53.161Z,14.97
2023-05-07T09:11:39.853Z,15.00
2023-05-07T09:14:25.605Z,15.04
2023-05-07T09:17:11.441Z,15.12
2023-05-07T09:19:57.318Z,15.21
2023-05-07T09:22:43.751Z,15.31
2023-05-07T09:25:33.364Z,15.58
2023-05-07T09:28:24.155Z,15.79
2023-05-07T09:31:11.015Z,15.87
2023-05-07T09:33:57.272Z,15.92
2023-05-07T09:36:47.825Z,15.93
2023-05-07T09:39:45.190Z,16.07
2023-05-07T09:42:32.343Z,16.23
2023-05-07T09:45:29.510Z,16.24
2023-05-07T09:48:19.551Z,16.13
2023-05-07T09:51:17.904Z,16.01
2023-05-07T09:54:04.970Z,15.88
2023-05-07T09:56:54.137Z,15.80
2023-05-07T09:59:44.876Z,15.78
2023-05-07T10:02:36.326Z,15.76
2023-05-07T10:05:23.669Z,15.85
2023-05-07T10:08:12.242Z,15.90
2023-05-07T10:11:00.995Z,15.92
2023-05-07T10:13:49.199Z,15.90
2023-05-07T10:16:37.601Z,15.88
2023-05-07T10:19:27.636Z,15.86
2023-05-07T10:22:17.788Z,15.85
2023-05-07T10:25:10.348Z,15.85
2023-05-07T10:28:00.827Z,15.82
2023-05-07T10:31:11.016Z,15.76
2023-05-07T10:34:03.948Z,15.77
2023-05-07T10:36:51.433Z,15.74
2023-05-07T10:39:38.392Z,15.69
2023-05-07T10:42:24.401Z,15.65
2023-05-07T10:45:15.237Z,15.58
2023-05-07T10:48:28.066Z,15.51
2023-05-07T10:51:22.006Z,15.46
2023-05-07T10:54:12.519Z,15.49
2023-05-07T10:57:33.242Z,15.53
2023-05-07T11:00:38.955Z,15.53
2023-05-07T11:03:29.626Z,15.57
2023-05-07T11:06:19.858Z,15.66
2023-05-07T11:09:10.493Z,15.85
2023-05-07T11:12:04.544Z,16.17
2023-05-07T11:15:02.557Z,16.53
2023-05-07T11:17:58.560Z,16.63
2023-05-07T11:20:55.741Z,16.73
2023-05-07T11:24:11.837Z,16.95
2023-05-07T11:27:11.894Z,17.12
2023-05-07T11:29:57.575Z,17.19
2023-05-07T11:32:43.841Z,17.13
2023-05-07T11:35:30.547Z,17.27
2023-05-07T11:38:17.002Z,17.57
2023-05-07T11:41:05.847Z,17.82
2023-05-07T11:43:58.309Z,18.04
2023-05-07T11:46:47.030Z,18.17
2023-05-07T11:49:32.545Z,18.34
2023-05-07T11:52:19.471Z,18.46
2023-05-07T11:55:05.839Z,18.61
2023-05-07T11:57:51.713Z,18.72
2023-05-07T12:00:37.031Z,19.00
2023-05-07T12:03:22.451Z,19.25
2023-05-07T12:06:08.383Z,19.11
2023-05-07T12:08:54.484Z,18.89
2023-05-07T12:11:40.962Z,18.60
2023-05-07T12:14:30.190Z,18.28
2023-05-07T12:17:16.295Z,18.11
2023-05-07T12:20:01.670Z,18.11
2023-05-07T12:22:48.918Z,18.49
2023-05-07T12:25:41.004Z,19.16
2023-05-07T12:28:26.628Z,19.66
2023-05-07T12:31:12.005Z,19.94
2023-05-07T12:33:57.529Z,20.16
2023-05-07T12:36:43.361Z,20.03
2023-05-07T12:39:29.185Z,19.85
2023-05-07T12:42:20.893Z,19.91
2023-05-07T12:45:14.621Z,19.78
2023-05-07T12:48:03.968Z,19.66
2023-05-07T12:50:54.321Z,19.51
2023-05-07T12:53:43.937Z,19.56
2023-05-07T12:56:32.475Z,19.56
2023-05-07T12:59:17.836Z,19.66
2023-05-07T13:02:03.499Z,20.07
2023-05-07T13:04:49.283Z,20.52
2023-05-07T13:07:35.429Z,20.76
2023-05-07T13:10:20.843Z,20.78
2023-05-07T13:13:06.285Z,20.80
2023-05-07T13:15:51.630Z,20.45
2023-05-07T13:18:38.459Z,20.48
2023-05-07T13:21:24.130Z,20.73
2023-05-07T13:24:09.482Z,21.04
2023-05-07T13:26:54.802Z,21.13
2023-05-07T13:29:40.389Z,20.93
2023-05-07T13:32:25.725Z,20.74
2023-05-07T13:35:11.349Z,20.72
2023-05-07T13:37:56.921Z,20.84
2023-05-07T13:40:42.398Z,20.85
2023-05-07T13:43:27.832Z,20.70
2023-05-07T13:46:13.171Z,20.70
2023-05-07T13:48:58.636Z,20.57
2023-05-07T13:51:43.872Z,20.41
2023-05-07T13:54:29.307Z,20.49
2023-05-07T13:57:14.741Z,20.59
2023-05-07T14:00:00.265Z,20.77
2023-05-07T14:02:45.801Z,20.82
2023-05-07T14:05:31.396Z,21.15
2023-05-07T14:08:19.678Z,21.67
2023-05-07T14:11:05.276Z,22.07
2023-05-07T14:13:50.852Z,22.31
2023-05-07T14:16:36.366Z,22.45
2023-05-07T14:19:24.711Z,22.43
2023-05-07T14:22:10.170Z,22.08
2023-05-07T14:25:05.912Z,21.95
2023-05-07T14:27:52.490Z,22.10
2023-05-07T14:30:37.881Z,22.18
2023-05-07T14:33:23.338Z,22.20
2023-05-07T14:36:08.660Z,22.24
2023-05-07T14:39:00.120Z,22.29
2023-05-07T14:41:45.307Z,22.22
2023-05-07T14:44:31.688Z,22.08
2023-05-07T14:47:19.656Z,22.19
2023-05-07T14:50:05.686Z,22.11
2023-05-07T14:52:51.180Z,22.05
2023-05-07T14:55:36.961Z,22.05
2023-05-07T14:58:22.303Z,21.87
2023-05-07T15:01:07.911Z,21.89
2023-05-07T15:03:53.316Z,21.87
2023-05-07T15:09:24.304Z,22.02
2023-05-07T15:12:09.724Z,21.84
2023-05-07T15:14:55.356Z,21.71
2023-05-07T15:17:40.882Z,21.73
2023-05-07T15:20:26.826Z,21.96
2023-05-07T15:23:15.365Z,22.06
2023-05-07T15:26:04.889Z,21.66
2023-05-07T15:28:50.212Z,21.30
2023-05-07T15:31:35.720Z,20.98
2023-05-07T15:34:22.049Z,20.82
2023-05-07T15:37:07.527Z,20.43
2023-05-07T15:39:52.862Z,20.04
2023-05-07T15:42:38.212Z,19.91
2023-05-07T15:45:24.793Z,19.71
2023-05-07T15:48:11.714Z,19.63
2023-05-07T15:50:57.255Z,19.49
2023-05-07T15:53:42.521Z,19.21
2023-05-07T15:56:27.849Z,19.00
2023-05-07T15:59:13.596Z,18.90
2023-05-07T16:01:59.148Z,18.70
2023-05-07T16:04:44.589Z,18.66
2023-05-07T16:07:30.166Z,18.67
2023-05-07T16:10:15.831Z,18.73
2023-05-07T16:13:03.047Z,18.81
2023-05-07T16:15:48.463Z,18.85
2023-05-07T16:18:34.100Z,18.89
2023-05-07T16:21:19.524Z,18.84
2023-05-07T16:24:05.168Z,18.71
2023-05-07T16:26:50.907Z,18.54
2023-05-07T16:29:36.455Z,18.50
2023-05-07T16:32:21.870Z,18.50
2023-05-07T16:35:07.997Z,18.57
2023-05-07T16:37:53.432Z,18.45
2023-05-07T16:40:39.965Z,18.31
2023-05-07T16:43:26.115Z,18.24
2023-05-07T16:46:11.427Z,18.22
2023-05-07T16:48:56.901Z,18.23
2023-05-07T16:51:43.380Z,18.18
2023-05-07T16:54:29.002Z,18.16
2023-05-07T16:57:14.389Z,18.10
2023-05-07T17:00:00.454Z,18.05
2023-05-07T17:02:47.011Z,17.94
2023-05-07T17:05:33.004Z,17.81
2023-05-07T17:08:18.316Z,17.63
2023-05-07T17:11:03.834Z,17.58
2023-05-07T17:13:49.141Z,17.57
2023-05-07T17:16:34.519Z,17.52
2023-05-07T17:19:20.504Z,17.50
2023-05-07T17:22:06.035Z,17.46
2023-05-07T17:24:51.519Z,17.45
2023-05-07T17:27:37.115Z,17.46
2023-05-07T17:30:22.536Z,17.44
2023-05-07T17:33:20.099Z,17.41
2023-05-07T17:36:08.686Z,17.34
2023-05-07T17:38:54.419Z,17.29
2023-05-07T17:41:39.688Z,17.25
2023-05-07T17:44:25.111Z,17.15
2023-05-07T17:47:10.604Z,17.03
2023-05-07T17:49:56.167Z,16.86
2023-05-07T17:52:41.792Z,16.68
2023-05-07T17:55:28.423Z,16.54
2023-05-07T17:58:13.819Z,16.45
2023-05-07T18:00:59.148Z,16.38
2023-05-07T18:03:44.614Z,16.33
2023-05-07T18:06:30.451Z,16.28
2023-05-07T18:09:15.945Z,16.23
2023-05-07T18:12:02.123Z,16.21
2023-05-07T18:14:47.880Z,16.22
2023-05-07T18:17:33.512Z,16.23
2023-05-07T18:20:19.010Z,16.28
2023-05-07T18:23:04.890Z,16.30
2023-05-07T18:25:50.354Z,16.31
2023-05-07T18:28:35.974Z,16.33
2023-05-07T18:31:21.616Z,16.28
2023-05-07T18:34:07.379Z,16.20
2023-05-07T18:36:52.801Z,16.13
2023-05-07T18:39:38.892Z,16.05
2023-05-07T18:42:24.370Z,16.02
2023-05-07T18:45:10.129Z,15.97
2023-05-07T18:47:55.521Z,15.95
2023-05-07T18:50:44.169Z,15.90
2023-05-07T18:53:29.677Z,15.87
2023-05-07T18:56:14.982Z,15.83
2023-05-07T18:59:00.314Z,15.75
2023-05-07T19:01:46.291Z,15.69
2023-05-07T19:04:31.883Z,15.67
2023-05-07T19:07:17.382Z,15.60
2023-05-07T19:10:05.984Z,15.49
2023-05-07T19:12:55.456Z,15.39
2023-05-07T19:15:41.920Z,15.30
2023-05-07T19:18:27.388Z,15.21
2023-05-07T19:21:12.829Z,15.11
2023-05-07T19:23:58.179Z,15.03
2023-05-07T19:26:43.677Z,14.97
2023-05-07T19:29:29.015Z,14.90
2023-05-07T19:32:14.564Z,14.82
2023-05-07T19:35:00.203Z,14.76
2023-05-07T19:37:45.785Z,14.72
2023-05-07T19:40:31.306Z,14.68
2023-05-07T19:43:16.601Z,14.64
2023-05-07T19:46:02.699Z,14.62
2023-05-07T19:48:47.963Z,14.59
2023-05-07T19:51:33.436Z,14.57
2023-05-07T19:54:19.145Z,14.57
2023-05-07T19:57:04.664Z,14.61
2023-05-07T19:59:50.424Z,14.61
2023-05-07T20:02:35.795Z,14.64
2023-05-07T20:05:21.353Z,14.61
2023-05-07T20:08:07.947Z,14.61
2023-05-07T20:10:53.986Z,14.61
2023-05-07T20:13:39.345Z,14.57
2023-05-07T20:16:24.507Z,14.57
2023-05-07T20:19:09.860Z,14.56
2023-05-07T20:21:55.346Z,14.53
2023-05-07T20:24:40.683Z,14.52
2023-05-07T20:27:26.073Z,14.51
2023-05-07T20:30:13.119Z,14.51
2023-05-07T20:32:59.079Z,14.50
2023-05-07T20:35:45.174Z,14.49
2023-05-07T20:38:33.913Z,14.47
2023-05-07T20:41:21.077Z,14.46
2023-05-07T20:44:06.730Z,14.42
2023-05-07T20:46:52.503Z,14.37
2023-05-07T20:49:37.865Z,14.35
2023-05-07T20:52:23.736Z,14.32
2023-05-07T20:55:09.187Z,14.29
2023-05-07T20:57:54.989Z,14.29
2023-05-07T21:00:40.602Z,14.29
2023-05-07T21:03:26.167Z,14.29
2023-05-07T21:06:11.890Z,14.29
2023-05-07T21:08:57.529Z,14.30
2023-05-07T21:11:42.971Z,14.25
2023-05-07T21:14:28.232Z,14.18
2023-05-07T21:17:13.660Z,14.11
2023-05-07T21:19:59.213Z,14.04
2023-05-07T21:22:44.740Z,13.94
2023-05-07T21:25:30.301Z,13.82
2023-05-07T21:28:15.825Z,13.68
2023-05-07T21:31:01.554Z,13.55
2023-05-07T21:33:46.958Z,13.45
2023-05-07T21:36:32.222Z,13.36
2023-05-07T21:39:17.568Z,13.31
2023-05-07T21:42:03.508Z,13.24
2023-05-07T21:44:48.983Z,13.19
2023-05-07T21:47:34.495Z,13.16
2023-05-07T21:50:19.762Z,13.14
2023-05-07T21:53:05.543Z,13.13
2023-05-07T21:55:51.931Z,13.10
2023-05-07T21:58:37.252Z,13.07
2023-05-07T22:01:22.784Z,13.07
2023-05-07T22:04:08.217Z,13.06
2023-05-07T22:06:54.356Z,13.04
2023-05-07T22:09:40.006Z,13.04
2023-05-07T22:12:25.467Z,13.04
2023-05-07T22:15:11.401Z,13.02
2023-05-07T22:17:56.757Z,12.97
2023-05-07T22:20:42.208Z,12.94
2023-05-07T22:23:27.889Z,12.91
2023-05-07T22:26:14.424Z,12.90
2023-05-07T22:29:00.159Z,12.85
2023-05-07T22:31:45.676Z,12.85
2023-05-07T22:34:31.130Z,12.85
2023-05-07T22:37:16.376Z,12.83
2023-05-07T22:40:02.184Z,12.82
2023-05-07T22:42:47.719Z,12.84
2023-05-07T22:45:33.006Z,12.83
2023-05-07T22:48:18.360Z,12.83
2023-05-07T22:51:04.130Z,12.81
2023-05-07T22:53:49.625Z,12.80
2023-05-07T22:56:35.107Z,12.80
2023-05-07T22:59:20.733Z,12.75
2023-05-07T23:02:06.137Z,12.74
2023-05-07T23:04:51.687Z,12.74
2023-05-07T23:07:37.381Z,12.73
2023-05-07T23:10:23.095Z,12.73
2023-05-07T23:13:15.242Z,12.71
2023-05-07T23:16:00.588Z,12.71
2023-05-07T23:18:46.018Z,12.68
2023-05-07T23:21:31.341Z,12.69
2023-05-07T23:24:16.684Z,12.66
2023-05-07T23:27:08.435Z,12.64
2023-05-07T23:29:53.742Z,12.65
2023-05-07T23:32:39.108Z,12.64
2023-05-07T23:35:24.556Z,12.65
2023-05-07T23:38:10.000Z,12.66
2023-05-07T23:40:55.828Z,12.68
2023-05-07T23:43:41.233Z,12.70
2023-05-07T23:46:26.972Z,12.71
2023-05-07T23:49:12.490Z,12.73
2023-05-07T23:51:58.073Z,12.72
2023-05-07T23:54:43.538Z,12.74
2023-05-07T23:57:29.082Z,12.75
